sensor_id;sensor_type;location;lat;lon;timestamp;temperature;humidity
4820;DHT22;2424;49.696;6.630;2023-04-25T00:05:07;8.30;99.90
4820;DHT22;2424;49.696;6.630;2023-04-25T00:10:29;8.30;99.90
4820;DHT22;2424;49.696;6.630;2023-04-25T00:15:51;8.30;99.90
4820;DHT22;2424;49.696;6.630;2023-04-25T00:21:15;8.30;99.90
4820;DHT22;2424;49.696;6.630;2023-04-25T00:26:38;8.30;99.90
4820;DHT22;2424;49.696;6.630;2023-04-25T00:32:00;8.30;99.90
4820;DHT22;2424;49.696;6.630;2023-04-25T00:37:24;8.30;99.90
4820;DHT22;2424;49.696;6.630;2023-04-25T00:42:46;8.30;99.90
4820;DHT22;2424;49.696;6.630;2023-04-25T00:48:08;8.30;99.90
4820;DHT22;2424;49.696;6.630;2023-04-25T00:53:32;8.20;99.90
4820;DHT22;2424;49.696;6.630;2023-04-25T00:58:54;8.20;99.90
4820;DHT22;2424;49.696;6.630;2023-04-25T01:04:17;8.20;99.90
4820;DHT22;2424;49.696;6.630;2023-04-25T01:09:41;8.20;99.90
4820;DHT22;2424;49.696;6.630;2023-04-25T01:15:03;8.20;99.90
4820;DHT22;2424;49.696;6.630;2023-04-25T01:20:25;8.20;99.90
4820;DHT22;2424;49.696;6.630;2023-04-25T01:25:50;8.20;99.90
4820;DHT22;2424;49.696;6.630;2023-04-25T01:31:12;8.20;99.90
4820;DHT22;2424;49.696;6.630;2023-04-25T01:36:34;8.20;99.90
4820;DHT22;2424;49.696;6.630;2023-04-25T01:41:59;8.20;99.90
4820;DHT22;2424;49.696;6.630;2023-04-25T01:47:22;8.20;99.90
4820;DHT22;2424;49.696;6.630;2023-04-25T01:52:44;8.20;99.90
4820;DHT22;2424;49.696;6.630;2023-04-25T01:58:08;8.10;99.90
4820;DHT22;2424;49.696;6.630;2023-04-25T02:03:33;8.10;99.90
4820;DHT22;2424;49.696;6.630;2023-04-25T02:08:56;8.10;99.90
4820;DHT22;2424;49.696;6.630;2023-04-25T02:14:19;8.00;99.90
4820;DHT22;2424;49.696;6.630;2023-04-25T02:19:41;8.00;99.90
4820;DHT22;2424;49.696;6.630;2023-04-25T02:25:03;8.00;99.90
4820;DHT22;2424;49.696;6.630;2023-04-25T02:30:27;7.90;99.90
4820;DHT22;2424;49.696;6.630;2023-04-25T02:35:49;7.90;99.90
4820;DHT22;2424;49.696;6.630;2023-04-25T02:41:11;7.90;99.90
4820;DHT22;2424;49.696;6.630;2023-04-25T02:46:34;7.90;99.90
4820;DHT22;2424;49.696;6.630;2023-04-25T02:51:56;7.90;99.90
4820;DHT22;2424;49.696;6.630;2023-04-25T02:57:18;7.90;99.90
4820;DHT22;2424;49.696;6.630;2023-04-25T03:02:42;7.90;99.90
4820;DHT22;2424;49.696;6.630;2023-04-25T03:08:04;7.90;99.90
4820;DHT22;2424;49.696;6.630;2023-04-25T03:13:26;7.90;99.90
4820;DHT22;2424;49.696;6.630;2023-04-25T03:18:51;7.90;99.90
4820;DHT22;2424;49.696;6.630;2023-04-25T03:24:14;7.90;99.90
4820;DHT22;2424;49.696;6.630;2023-04-25T03:29:36;7.90;99.90
4820;DHT22;2424;49.696;6.630;2023-04-25T03:34:59;7.80;99.90
4820;DHT22;2424;49.696;6.630;2023-04-25T03:40:21;7.80;99.90
4820;DHT22;2424;49.696;6.630;2023-04-25T03:45:43;7.80;99.90
4820;DHT22;2424;49.696;6.630;2023-04-25T03:51:07;7.80;99.90
4820;DHT22;2424;49.696;6.630;2023-04-25T03:56:30;7.80;99.90
4820;DHT22;2424;49.696;6.630;2023-04-25T04:01:52;7.70;99.90
4820;DHT22;2424;49.696;6.630;2023-04-25T04:07:15;7.80;99.90
4820;DHT22;2424;49.696;6.630;2023-04-25T04:12:37;7.80;99.90
4820;DHT22;2424;49.696;6.630;2023-04-25T04:17:59;7.80;99.90
4820;DHT22;2424;49.696;6.630;2023-04-25T04:23:24;7.70;99.90
4820;DHT22;2424;49.696;6.630;2023-04-25T04:28:47;7.70;99.90
4820;DHT22;2424;49.696;6.630;2023-04-25T04:34:09;7.70;99.90
4820;DHT22;2424;49.696;6.630;2023-04-25T04:39:32;7.70;99.90
4820;DHT22;2424;49.696;6.630;2023-04-25T04:44:54;7.70;99.90
4820;DHT22;2424;49.696;6.630;2023-04-25T04:50:16;7.70;99.90
4820;DHT22;2424;49.696;6.630;2023-04-25T04:55:40;7.70;99.90
4820;DHT22;2424;49.696;6.630;2023-04-25T05:01:02;7.70;99.90
4820;DHT22;2424;49.696;6.630;2023-04-25T05:06:24;7.60;99.90
4820;DHT22;2424;49.696;6.630;2023-04-25T05:11:48;7.70;99.90
4820;DHT22;2424;49.696;6.630;2023-04-25T05:17:09;7.70;99.90
4820;DHT22;2424;49.696;6.630;2023-04-25T05:22:31;7.70;99.90
4820;DHT22;2424;49.696;6.630;2023-04-25T05:27:55;7.70;99.90
4820;DHT22;2424;49.696;6.630;2023-04-25T05:33:17;7.80;99.90
4820;DHT22;2424;49.696;6.630;2023-04-25T05:38:39;7.80;99.90
4820;DHT22;2424;49.696;6.630;2023-04-25T05:44:02;7.80;99.90
4820;DHT22;2424;49.696;6.630;2023-04-25T05:49:25;7.80;99.90
4820;DHT22;2424;49.696;6.630;2023-04-25T05:54:47;7.80;99.90
4820;DHT22;2424;49.696;6.630;2023-04-25T06:00:12;7.80;99.90
4820;DHT22;2424;49.696;6.630;2023-04-25T06:05:35;7.80;99.90
4820;DHT22;2424;49.696;6.630;2023-04-25T06:10:57;7.80;99.90
4820;DHT22;2424;49.696;6.630;2023-04-25T06:16:20;7.80;99.90
4820;DHT22;2424;49.696;6.630;2023-04-25T06:21:43;7.80;99.90
4820;DHT22;2424;49.696;6.630;2023-04-25T06:27:05;7.80;99.90
4820;DHT22;2424;49.696;6.630;2023-04-25T06:32:28;7.80;99.90
4820;DHT22;2424;49.696;6.630;2023-04-25T06:37:50;7.70;99.90
4820;DHT22;2424;49.696;6.630;2023-04-25T06:43:12;7.80;99.90
4820;DHT22;2424;49.696;6.630;2023-04-25T06:48:35;7.80;99.90
4820;DHT22;2424;49.696;6.630;2023-04-25T06:53:57;7.70;99.90
4820;DHT22;2424;49.696;6.630;2023-04-25T06:59:19;7.70;99.90
4820;DHT22;2424;49.696;6.630;2023-04-25T07:04:42;7.60;99.90
4820;DHT22;2424;49.696;6.630;2023-04-25T07:10:06;7.70;99.90
4820;DHT22;2424;49.696;6.630;2023-04-25T07:15:28;7.60;99.90
4820;DHT22;2424;49.696;6.630;2023-04-25T07:20:52;7.60;99.90
4820;DHT22;2424;49.696;6.630;2023-04-25T07:26:14;7.50;99.90
4820;DHT22;2424;49.696;6.630;2023-04-25T07:31:35;7.50;99.90
4820;DHT22;2424;49.696;6.630;2023-04-25T07:36:59;7.50;99.90
4820;DHT22;2424;49.696;6.630;2023-04-25T07:42:21;7.60;99.90
4820;DHT22;2424;49.696;6.630;2023-04-25T07:47:43;7.60;99.90
4820;DHT22;2424;49.696;6.630;2023-04-25T07:53:06;7.50;99.90
4820;DHT22;2424;49.696;6.630;2023-04-25T07:58:28;7.40;99.90
4820;DHT22;2424;49.696;6.630;2023-04-25T08:03:50;7.40;99.90
4820;DHT22;2424;49.696;6.630;2023-04-25T08:09:13;7.40;99.90
4820;DHT22;2424;49.696;6.630;2023-04-25T08:14:36;7.40;99.90
4820;DHT22;2424;49.696;6.630;2023-04-25T08:20:00;7.40;99.90
4820;DHT22;2424;49.696;6.630;2023-04-25T08:25:23;7.50;99.90
4820;DHT22;2424;49.696;6.630;2023-04-25T08:30:45;7.50;99.90
4820;DHT22;2424;49.696;6.630;2023-04-25T08:36:07;7.50;99.90
4820;DHT22;2424;49.696;6.630;2023-04-25T08:41:31;7.50;99.90
4820;DHT22;2424;49.696;6.630;2023-04-25T08:46:54;7.70;99.90
4820;DHT22;2424;49.696;6.630;2023-04-25T08:52:22;7.90;99.90
4820;DHT22;2424;49.696;6.630;2023-04-25T08:57:46;7.80;99.90
4820;DHT22;2424;49.696;6.630;2023-04-25T09:03:08;7.80;99.90
4820;DHT22;2424;49.696;6.630;2023-04-25T09:08:31;8.00;99.90
4820;DHT22;2424;49.696;6.630;2023-04-25T09:14:10;8.10;99.90
4820;DHT22;2424;49.696;6.630;2023-04-25T09:19:33;8.20;99.90
4820;DHT22;2424;49.696;6.630;2023-04-25T09:24:56;8.20;99.90
4820;DHT22;2424;49.696;6.630;2023-04-25T09:30:29;8.30;99.90
4820;DHT22;2424;49.696;6.630;2023-04-25T09:35:51;8.10;99.90
4820;DHT22;2424;49.696;6.630;2023-04-25T09:41:22;8.10;99.90
4820;DHT22;2424;49.696;6.630;2023-04-25T09:46:49;8.00;99.90
4820;DHT22;2424;49.696;6.630;2023-04-25T09:52:15;8.10;99.90
4820;DHT22;2424;49.696;6.630;2023-04-25T09:57:37;8.00;99.90
4820;DHT22;2424;49.696;6.630;2023-04-25T10:03:02;8.10;99.90
4820;DHT22;2424;49.696;6.630;2023-04-25T10:08:28;8.30;99.90
4820;DHT22;2424;49.696;6.630;2023-04-25T10:13:52;8.30;99.90
4820;DHT22;2424;49.696;6.630;2023-04-25T10:19:16;8.20;99.90
4820;DHT22;2424;49.696;6.630;2023-04-25T10:24:39;8.10;99.90
4820;DHT22;2424;49.696;6.630;2023-04-25T10:30:03;8.10;99.90
4820;DHT22;2424;49.696;6.630;2023-04-25T10:35:29;8.10;99.90
4820;DHT22;2424;49.696;6.630;2023-04-25T10:41:03;8.10;99.90
4820;DHT22;2424;49.696;6.630;2023-04-25T10:46:26;8.10;99.90
4820;DHT22;2424;49.696;6.630;2023-04-25T10:52:11;8.30;99.90
4820;DHT22;2424;49.696;6.630;2023-04-25T10:57:37;8.60;99.90
4820;DHT22;2424;49.696;6.630;2023-04-25T11:03:00;8.90;99.90
4820;DHT22;2424;49.696;6.630;2023-04-25T11:08:35;8.80;99.90
4820;DHT22;2424;49.696;6.630;2023-04-25T11:13:59;8.90;99.90
4820;DHT22;2424;49.696;6.630;2023-04-25T11:19:21;9.00;99.90
4820;DHT22;2424;49.696;6.630;2023-04-25T11:24:45;8.90;99.90
4820;DHT22;2424;49.696;6.630;2023-04-25T11:30:12;8.90;99.90
4820;DHT22;2424;49.696;6.630;2023-04-25T11:35:35;9.10;99.90
4820;DHT22;2424;49.696;6.630;2023-04-25T11:40:58;9.50;99.90
4820;DHT22;2424;49.696;6.630;2023-04-25T11:46:20;9.50;99.90
4820;DHT22;2424;49.696;6.630;2023-04-25T11:51:44;9.30;99.90
4820;DHT22;2424;49.696;6.630;2023-04-25T11:57:08;9.20;99.90
4820;DHT22;2424;49.696;6.630;2023-04-25T12:02:30;9.10;99.90
4820;DHT22;2424;49.696;6.630;2023-04-25T12:07:52;9.20;99.90
4820;DHT22;2424;49.696;6.630;2023-04-25T12:13:23;9.40;99.90
4820;DHT22;2424;49.696;6.630;2023-04-25T12:18:45;9.40;99.90
4820;DHT22;2424;49.696;6.630;2023-04-25T12:24:11;9.50;99.90
4820;DHT22;2424;49.696;6.630;2023-04-25T12:29:36;9.50;99.90
4820;DHT22;2424;49.696;6.630;2023-04-25T12:34:59;9.50;99.90
4820;DHT22;2424;49.696;6.630;2023-04-25T12:40:21;9.50;99.90
4820;DHT22;2424;49.696;6.630;2023-04-25T12:45:45;9.50;99.90
4820;DHT22;2424;49.696;6.630;2023-04-25T12:51:08;9.40;99.90
4820;DHT22;2424;49.696;6.630;2023-04-25T12:56:31;9.50;99.90
4820;DHT22;2424;49.696;6.630;2023-04-25T13:01:54;9.60;99.90
4820;DHT22;2424;49.696;6.630;2023-04-25T13:07:16;9.60;99.90
4820;DHT22;2424;49.696;6.630;2023-04-25T13:12:38;9.80;99.90
4820;DHT22;2424;49.696;6.630;2023-04-25T13:18:02;10.20;99.90
4820;DHT22;2424;49.696;6.630;2023-04-25T13:23:25;10.40;99.90
4820;DHT22;2424;49.696;6.630;2023-04-25T13:28:47;10.40;99.90
4820;DHT22;2424;49.696;6.630;2023-04-25T13:34:11;10.60;99.90
4820;DHT22;2424;49.696;6.630;2023-04-25T13:39:33;10.60;99.90
4820;DHT22;2424;49.696;6.630;2023-04-25T13:44:55;10.50;99.90
4820;DHT22;2424;49.696;6.630;2023-04-25T13:50:19;10.40;99.90
4820;DHT22;2424;49.696;6.630;2023-04-25T13:55:41;10.20;99.90
4820;DHT22;2424;49.696;6.630;2023-04-25T14:01:03;10.20;99.90
4820;DHT22;2424;49.696;6.630;2023-04-25T14:06:27;10.10;99.90
4820;DHT22;2424;49.696;6.630;2023-04-25T14:11:49;10.00;99.90
4820;DHT22;2424;49.696;6.630;2023-04-25T14:17:11;9.80;99.90
4820;DHT22;2424;49.696;6.630;2023-04-25T14:22:35;9.90;99.90
4820;DHT22;2424;49.696;6.630;2023-04-25T14:27:57;10.50;99.90
4820;DHT22;2424;49.696;6.630;2023-04-25T14:33:19;10.50;99.90
4820;DHT22;2424;49.696;6.630;2023-04-25T14:38:42;10.60;99.90
4820;DHT22;2424;49.696;6.630;2023-04-25T14:44:04;10.60;99.90
4820;DHT22;2424;49.696;6.630;2023-04-25T14:49:26;10.60;99.90
4820;DHT22;2424;49.696;6.630;2023-04-25T14:54:50;10.70;99.90
4820;DHT22;2424;49.696;6.630;2023-04-25T15:00:12;10.60;99.90
4820;DHT22;2424;49.696;6.630;2023-04-25T15:05:36;10.90;99.90
4820;DHT22;2424;49.696;6.630;2023-04-25T15:11:00;10.80;99.90
4820;DHT22;2424;49.696;6.630;2023-04-25T15:16:22;10.80;99.90
4820;DHT22;2424;49.696;6.630;2023-04-25T15:21:44;11.10;99.90
4820;DHT22;2424;49.696;6.630;2023-04-25T15:27:09;11.20;99.90
4820;DHT22;2424;49.696;6.630;2023-04-25T15:32:31;11.00;99.90
4820;DHT22;2424;49.696;6.630;2023-04-25T15:37:53;10.70;99.90
4820;DHT22;2424;49.696;6.630;2023-04-25T15:43:16;10.50;99.90
4820;DHT22;2424;49.696;6.630;2023-04-25T15:48:38;10.40;99.90
4820;DHT22;2424;49.696;6.630;2023-04-25T15:54:00;10.10;99.90
4820;DHT22;2424;49.696;6.630;2023-04-25T15:59:25;10.20;99.90
4820;DHT22;2424;49.696;6.630;2023-04-25T16:04:47;10.10;99.90
4820;DHT22;2424;49.696;6.630;2023-04-25T16:10:10;10.00;99.90
4820;DHT22;2424;49.696;6.630;2023-04-25T16:15:33;9.90;99.90
4820;DHT22;2424;49.696;6.630;2023-04-25T16:20:55;10.00;99.90
4820;DHT22;2424;49.696;6.630;2023-04-25T16:26:17;9.90;99.90
4820;DHT22;2424;49.696;6.630;2023-04-25T16:31:41;9.80;99.90
4820;DHT22;2424;49.696;6.630;2023-04-25T16:37:03;9.70;99.90
4820;DHT22;2424;49.696;6.630;2023-04-25T16:42:25;9.60;99.90
4820;DHT22;2424;49.696;6.630;2023-04-25T16:47:48;9.60;99.90
4820;DHT22;2424;49.696;6.630;2023-04-25T16:53:10;9.60;99.90
4820;DHT22;2424;49.696;6.630;2023-04-25T16:58:32;9.60;99.90
4820;DHT22;2424;49.696;6.630;2023-04-25T17:03:55;9.50;99.90
4820;DHT22;2424;49.696;6.630;2023-04-25T17:09:17;9.50;99.90
4820;DHT22;2424;49.696;6.630;2023-04-25T17:14:39;9.50;99.90
4820;DHT22;2424;49.696;6.630;2023-04-25T17:20:05;9.50;99.90
4820;DHT22;2424;49.696;6.630;2023-04-25T17:25:27;9.60;99.90
4820;DHT22;2424;49.696;6.630;2023-04-25T17:30:49;9.50;99.90
4820;DHT22;2424;49.696;6.630;2023-04-25T17:36:13;9.50;99.90
4820;DHT22;2424;49.696;6.630;2023-04-25T17:41:36;9.50;99.90
4820;DHT22;2424;49.696;6.630;2023-04-25T17:46:58;9.70;99.90
4820;DHT22;2424;49.696;6.630;2023-04-25T17:52:23;9.80;99.90
4820;DHT22;2424;49.696;6.630;2023-04-25T17:57:45;9.70;99.90
4820;DHT22;2424;49.696;6.630;2023-04-25T18:03:07;9.70;99.90
4820;DHT22;2424;49.696;6.630;2023-04-25T18:08:30;9.60;99.90
4820;DHT22;2424;49.696;6.630;2023-04-25T18:13:53;9.50;99.90
4820;DHT22;2424;49.696;6.630;2023-04-25T18:19:15;9.40;99.90
4820;DHT22;2424;49.696;6.630;2023-04-25T18:24:42;9.30;99.90
4820;DHT22;2424;49.696;6.630;2023-04-25T18:30:06;9.20;99.90
4820;DHT22;2424;49.696;6.630;2023-04-25T18:35:28;9.00;99.90
4820;DHT22;2424;49.696;6.630;2023-04-25T18:40:52;8.90;99.90
4820;DHT22;2424;49.696;6.630;2023-04-25T18:46:13;8.80;99.90
4820;DHT22;2424;49.696;6.630;2023-04-25T18:51:35;8.70;99.90
4820;DHT22;2424;49.696;6.630;2023-04-25T18:56:59;8.60;99.90
4820;DHT22;2424;49.696;6.630;2023-04-25T19:02:21;8.50;99.90
4820;DHT22;2424;49.696;6.630;2023-04-25T19:07:43;8.50;99.90
4820;DHT22;2424;49.696;6.630;2023-04-25T19:13:08;8.50;99.90
4820;DHT22;2424;49.696;6.630;2023-04-25T19:18:30;8.50;99.90
4820;DHT22;2424;49.696;6.630;2023-04-25T19:23:52;8.50;99.90
4820;DHT22;2424;49.696;6.630;2023-04-25T19:29:15;8.40;99.90
4820;DHT22;2424;49.696;6.630;2023-04-25T19:34:37;8.40;99.90
4820;DHT22;2424;49.696;6.630;2023-04-25T19:40:00;8.20;99.90
4820;DHT22;2424;49.696;6.630;2023-04-25T19:45:25;8.20;99.90
4820;DHT22;2424;49.696;6.630;2023-04-25T19:50:47;8.00;99.90
4820;DHT22;2424;49.696;6.630;2023-04-25T19:56:09;8.10;99.90
4820;DHT22;2424;49.696;6.630;2023-04-25T20:01:32;7.90;99.90
4820;DHT22;2424;49.696;6.630;2023-04-25T20:06:54;7.70;99.90
4820;DHT22;2424;49.696;6.630;2023-04-25T20:12:16;7.50;99.90
4820;DHT22;2424;49.696;6.630;2023-04-25T20:17:40;7.20;99.90
4820;DHT22;2424;49.696;6.630;2023-04-25T20:23:02;7.20;99.90
4820;DHT22;2424;49.696;6.630;2023-04-25T20:28:25;7.00;99.90
4820;DHT22;2424;49.696;6.630;2023-04-25T20:33:49;6.70;99.90
4820;DHT22;2424;49.696;6.630;2023-04-25T20:39:11;6.60;99.90
4820;DHT22;2424;49.696;6.630;2023-04-25T20:44:33;6.60;99.90
4820;DHT22;2424;49.696;6.630;2023-04-25T20:49:56;6.60;99.90
4820;DHT22;2424;49.696;6.630;2023-04-25T20:55:19;6.40;99.90
4820;DHT22;2424;49.696;6.630;2023-04-25T21:00:41;6.40;99.90
4820;DHT22;2424;49.696;6.630;2023-04-25T21:06:05;6.40;99.90
4820;DHT22;2424;49.696;6.630;2023-04-25T21:11:27;6.20;99.90
4820;DHT22;2424;49.696;6.630;2023-04-25T21:16:49;6.30;99.90
4820;DHT22;2424;49.696;6.630;2023-04-25T21:22:12;6.10;99.90
4820;DHT22;2424;49.696;6.630;2023-04-25T21:27:34;6.10;99.90
4820;DHT22;2424;49.696;6.630;2023-04-25T21:32:57;6.10;99.90
4820;DHT22;2424;49.696;6.630;2023-04-25T21:38:20;6.00;99.90
4820;DHT22;2424;49.696;6.630;2023-04-25T21:43:42;5.90;99.90
4820;DHT22;2424;49.696;6.630;2023-04-25T21:49:04;5.90;99.90
4820;DHT22;2424;49.696;6.630;2023-04-25T21:54:28;5.80;99.90
4820;DHT22;2424;49.696;6.630;2023-04-25T21:59:50;5.70;99.90
4820;DHT22;2424;49.696;6.630;2023-04-25T22:05:12;5.70;99.90
4820;DHT22;2424;49.696;6.630;2023-04-25T22:10:35;5.60;99.90
4820;DHT22;2424;49.696;6.630;2023-04-25T22:15:57;5.60;99.90
4820;DHT22;2424;49.696;6.630;2023-04-25T22:21:19;5.40;99.90
4820;DHT22;2424;49.696;6.630;2023-04-25T22:26:43;5.40;99.90
4820;DHT22;2424;49.696;6.630;2023-04-25T22:32:05;5.40;99.90
4820;DHT22;2424;49.696;6.630;2023-04-25T22:37:27;5.20;99.90
4820;DHT22;2424;49.696;6.630;2023-04-25T22:42:50;5.20;99.90
4820;DHT22;2424;49.696;6.630;2023-04-25T22:48:12;5.10;99.90
4820;DHT22;2424;49.696;6.630;2023-04-25T22:53:35;5.00;99.90
4820;DHT22;2424;49.696;6.630;2023-04-25T22:59:00;5.00;99.90
4820;DHT22;2424;49.696;6.630;2023-04-25T23:04:22;4.90;99.90
4820;DHT22;2424;49.696;6.630;2023-04-25T23:09:44;4.90;99.90
4820;DHT22;2424;49.696;6.630;2023-04-25T23:15:08;4.80;99.90
4820;DHT22;2424;49.696;6.630;2023-04-25T23:20:31;4.80;99.90
4820;DHT22;2424;49.696;6.630;2023-04-25T23:25:54;4.70;99.90
4820;DHT22;2424;49.696;6.630;2023-04-25T23:31:18;4.50;99.90
4820;DHT22;2424;49.696;6.630;2023-04-25T23:36:40;4.50;99.90
4820;DHT22;2424;49.696;6.630;2023-04-25T23:42:02;4.40;99.90
4820;DHT22;2424;49.696;6.630;2023-04-25T23:47:26;4.40;99.90
4820;DHT22;2424;49.696;6.630;2023-04-25T23:52:48;4.30;99.90
4820;DHT22;2424;49.696;6.630;2023-04-25T23:58:09;4.30;99.90
